Time;durP1;ratioP1;P1;durP2;ratioP2;P2;SDS_P1;SDS_P2;PMS_P1;PMS_P2;Temp;Humidity;BMP_temperature;BMP_pressure;BME280_temperature;BME280_humidity;BME280_pressure;Samples;Min_cycle;Max_cycle;Signal;HPM_P1;HPM_P2
2024/01/03 00:00:21;;;;;;;13.32;12.02;;;23.30;72.80;;;;;;6200627;28;89004;-64
2024/01/03 00:03:25;;;;;;;12.77;11.35;;;23.30;72.50;;;;;;6194518;28;89093;-64
2024/01/03 00:06:34;;;;;;;14.85;12.52;;;23.30;72.50;;;;;;6194001;28;89074;-65
2024/01/03 00:09:37;;;;;;;12.75;11.50;;;23.30;72.50;;;;;;6206541;28;89359;-65
2024/01/03 00:12:41;;;;;;;13.60;11.85;;;23.30;72.40;;;;;;6200105;28;89259;-65
2024/01/03 00:16:19;;;;;;;13.15;11.85;;;23.30;72.30;;;;;;6195066;28;89216;-65
2024/01/03 00:19:22;;;;;;;14.18;11.98;;;23.20;72.20;;;;;;6205841;28;89109;-65
2024/01/03 00:22:26;;;;;;;15.68;12.02;;;23.30;72.30;;;;;;6199300;28;88686;-65
2024/01/03 00:25:30;;;;;;;12.02;10.93;;;23.20;72.20;;;;;;6194656;28;89437;-65
2024/01/03 00:28:34;;;;;;;12.90;11.68;;;23.20;72.20;;;;;;6201440;28;88092;-64
2024/01/03 00:31:41;;;;;;;13.07;11.77;;;23.20;72.30;;;;;;6172965;28;89950;-65
2024/01/03 00:34:43;;;;;;;13.00;11.70;;;23.20;72.30;;;;;;6196887;28;87019;-65
2024/01/03 00:37:46;;;;;;;12.80;11.50;;;23.10;72.20;;;;;;6197375;28;89079;-64
2024/01/03 00:40:55;;;;;;;15.32;11.85;;;23.10;72.20;;;;;;6194692;28;89098;-66
2024/01/03 00:43:57;;;;;;;12.75;11.52;;;23.10;72.30;;;;;;6203439;28;88302;-65
2024/01/03 00:47:01;;;;;;;13.10;11.65;;;23.10;73.00;;;;;;6190945;28;88453;-64
2024/01/03 00:50:04;;;;;;;12.50;11.20;;;23.10;73.70;;;;;;6197309;28;88269;-64
2024/01/03 00:53:07;;;;;;;12.20;11.07;;;23.10;73.30;;;;;;6196325;28;89029;-64
2024/01/03 00:56:09;;;;;;;12.27;11.07;;;23.10;73.00;;;;;;6196897;28;89049;-64
2024/01/03 00:59:11;;;;;;;12.55;11.35;;;23.10;72.80;;;;;;6203234;28;89009;-63
2024/01/03 01:02:15;;;;;;;12.02;10.82;;;23.20;72.80;;;;;;6203094;28;89943;-63
2024/01/03 01:05:18;;;;;;;11.88;10.77;;;23.10;72.70;;;;;;6207025;28;88399;-64
2024/01/03 01:08:20;;;;;;;12.18;10.98;;;23.10;72.60;;;;;;6203081;28;89514;-64
2024/01/03 01:11:23;;;;;;;12.75;11.55;;;23.20;72.60;;;;;;6205350;28;88989;-64
2024/01/03 01:14:25;;;;;;;11.35;10.35;;;23.10;72.40;;;;;;6207218;28;88982;-64
2024/01/03 01:17:29;;;;;;;12.18;10.98;;;23.10;73.30;;;;;;6212248;28;92533;-64
2024/01/03 01:20:32;;;;;;;11.55;10.45;;;23.10;72.20;;;;;;6193006;28;89227;-64
2024/01/03 01:23:34;;;;;;;10.98;9.98;;;23.10;72.20;;;;;;6198179;28;87262;-64
2024/01/03 01:26:37;;;;;;;11.73;10.52;;;23.10;72.20;;;;;;6207685;28;89085;-64
2024/01/03 01:29:40;;;;;;;10.85;9.85;;;23.10;72.20;;;;;;6210014;28;88105;-64
2024/01/03 01:32:44;;;;;;;11.35;10.25;;;23.00;72.10;;;;;;6207497;28;90805;-64
2024/01/03 01:35:47;;;;;;;11.18;10.13;;;23.10;72.20;;;;;;6201622;28;89115;-64
2024/01/03 01:38:49;;;;;;;10.68;9.60;;;23.10;72.20;;;;;;6208305;28;89218;-64
2024/01/03 01:41:51;;;;;;;11.20;10.10;;;23.10;72.20;;;;;;6206969;28;89001;-64
2024/01/03 01:44:53;;;;;;;10.35;9.27;;;23.00;72.10;;;;;;6202415;28;89422;-63
2024/01/03 01:47:56;;;;;;;11.45;10.35;;;23.00;72.20;;;;;;6201075;28;89191;-63
2024/01/03 01:50:58;;;;;;;10.65;9.65;;;23.00;72.20;;;;;;6207630;28;87977;-63
2024/01/03 01:54:01;;;;;;;10.45;9.45;;;23.00;72.20;;;;;;6206096;28;87239;-63
2024/01/03 01:57:04;;;;;;;10.98;9.88;;;23.00;72.20;;;;;;6204225;28;89116;-63
2024/01/03 02:00:08;;;;;;;11.15;10.00;;;23.00;72.10;;;;;;6213248;28;89063;-63
2024/01/03 02:03:12;;;;;;;10.77;9.68;;;23.00;72.10;;;;;;6206426;28;89987;-63
2024/01/03 02:06:15;;;;;;;10.25;9.25;;;23.00;72.00;;;;;;6207169;28;87907;-63
2024/01/03 02:09:17;;;;;;;10.70;9.60;;;23.00;72.00;;;;;;6205944;28;90284;-65
2024/01/03 02:12:26;;;;;;;10.70;9.60;;;23.00;71.90;;;;;;6213597;28;89178;-65
2024/01/03 02:15:28;;;;;;;10.68;9.57;;;23.00;71.90;;;;;;6204029;28;89914;-65
2024/01/03 02:18:32;;;;;;;10.18;9.23;;;23.00;71.80;;;;;;6208120;28;89109;-65
2024/01/03 02:21:35;;;;;;;9.70;8.80;;;23.00;71.80;;;;;;6205575;28;89132;-66
2024/01/03 02:24:37;;;;;;;10.43;9.43;;;23.00;71.80;;;;;;6189601;28;87204;-65
2024/01/03 02:27:39;;;;;;;10.45;9.35;;;22.90;71.80;;;;;;6206115;28;88560;-65
2024/01/03 02:30:44;;;;;;;10.00;9.02;;;22.90;71.80;;;;;;6205020;28;89045;-65
2024/01/03 02:33:46;;;;;;;10.23;9.23;;;22.90;71.90;;;;;;6195501;28;90302;-62
2024/01/03 02:36:52;;;;;;;10.10;9.10;;;22.90;71.80;;;;;;6198063;28;89117;-63
2024/01/03 02:39:54;;;;;;;9.48;8.55;;;22.90;71.80;;;;;;6199174;28;89028;-61
2024/01/03 02:42:56;;;;;;;9.85;8.95;;;22.90;71.80;;;;;;6196788;28;89193;-63
2024/01/03 02:45:58;;;;;;;9.45;8.55;;;22.90;71.80;;;;;;6191813;28;87979;-63
2024/01/03 02:49:00;;;;;;;9.50;8.60;;;22.80;71.80;;;;;;6189774;28;89158;-63
2024/01/03 02:52:03;;;;;;;9.10;8.20;;;22.80;71.80;;;;;;6192841;28;88690;-63
2024/01/03 02:55:06;;;;;;;9.38;8.48;;;22.80;71.80;;;;;;6200102;28;88448;-62
2024/01/03 02:58:08;;;;;;;9.07;8.18;;;22.80;71.80;;;;;;6200500;28;89383;-63
2024/01/03 03:01:10;;;;;;;9.55;8.55;;;22.80;71.70;;;;;;6197824;28;87954;-63
2024/01/03 03:04:12;;;;;;;8.82;8.02;;;22.80;71.70;;;;;;6208484;28;90079;-63
2024/01/03 03:07:15;;;;;;;8.85;8.02;;;22.80;71.60;;;;;;6205826;28;88946;-63
2024/01/03 03:10:17;;;;;;;9.05;8.25;;;22.90;71.60;;;;;;6189248;28;89043;-63
2024/01/03 03:13:19;;;;;;;8.90;8.10;;;22.90;71.60;;;;;;6196755;28;89488;-63
2024/01/03 03:16:21;;;;;;;8.68;7.88;;;22.90;71.50;;;;;;6194698;28;89026;-63
2024/01/03 03:19:23;;;;;;;9.25;8.10;;;22.90;71.40;;;;;;6199069;28;89036;-64
2024/01/03 03:22:26;;;;;;;9.15;8.18;;;22.90;71.30;;;;;;6202761;28;89124;-63
2024/01/03 03:25:28;;;;;;;9.30;8.35;;;22.90;71.30;;;;;;6195505;28;88674;-63
2024/01/03 03:28:31;;;;;;;8.63;7.82;;;22.80;71.30;;;;;;6185004;28;88972;-64
2024/01/03 03:31:34;;;;;;;8.52;7.72;;;22.80;71.30;;;;;;6198694;28;89122;-64
2024/01/03 03:34:36;;;;;;;8.23;7.43;;;22.90;71.20;;;;;;6197549;28;88813;-64
2024/01/03 03:37:40;;;;;;;8.15;7.35;;;22.80;71.00;;;;;;6200845;28;89089;-64
2024/01/03 03:40:42;;;;;;;8.73;7.65;;;22.80;70.80;;;;;;6183868;28;89527;-64
2024/01/03 03:43:44;;;;;;;7.75;7.05;;;22.80;70.60;;;;;;6202827;28;88809;-64
2024/01/03 03:46:46;;;;;;;7.30;6.60;;;22.80;70.50;;;;;;6202175;28;89127;-64
2024/01/03 03:49:48;;;;;;;7.35;6.65;;;22.80;70.50;;;;;;6202525;28;89337;-64
2024/01/03 03:52:51;;;;;;;7.18;6.50;;;22.70;70.30;;;;;;6199086;28;89407;-64
2024/01/03 03:55:53;;;;;;;7.53;6.75;;;22.70;70.40;;;;;;6213989;28;88305;-64
2024/01/03 03:58:56;;;;;;;7.70;6.97;;;22.80;70.50;;;;;;6205114;28;89153;-64
2024/01/03 04:01:57;;;;;;;7.57;6.88;;;22.70;70.50;;;;;;6202897;28;89139;-64
2024/01/03 04:04:59;;;;;;;7.45;6.75;;;22.80;70.60;;;;;;6198504;28;89926;-64
2024/01/03 04:08:03;;;;;;;7.50;6.80;;;22.70;70.50;;;;;;6191832;28;88961;-64
2024/01/03 04:11:05;;;;;;;7.03;6.30;;;22.70;70.50;;;;;;6203344;28;89102;-64
2024/01/03 04:14:08;;;;;;;7.30;6.47;;;22.70;70.50;;;;;;6196238;28;89267;-64
2024/01/03 04:17:10;;;;;;;7.82;6.70;;;22.80;70.60;;;;;;6198371;28;87952;-64
2024/01/03 04:20:12;;;;;;;6.63;6.03;;;22.70;70.60;;;;;;6193367;28;89063;-64
2024/01/03 04:23:15;;;;;;;7.18;6.47;;;22.80;70.60;;;;;;6200378;28;89144;-64
2024/01/03 04:26:18;;;;;;;6.55;5.95;;;22.70;70.50;;;;;;6192895;28;88525;-64
2024/01/03 04:29:19;;;;;;;6.93;6.22;;;22.70;70.60;;;;;;6199663;28;89096;-64
2024/01/03 04:32:21;;;;;;;6.80;6.00;;;22.70;70.60;;;;;;6199206;28;89232;-64
2024/01/03 04:35:24;;;;;;;7.07;6.13;;;22.70;70.70;;;;;;6192873;28;89842;-64
2024/01/03 04:38:27;;;;;;;6.72;6.03;;;22.70;70.80;;;;;;6190505;28;87948;-64
2024/01/03 04:41:29;;;;;;;6.60;5.95;;;22.70;70.80;;;;;;6199774;28;89374;-64
2024/01/03 04:44:33;;;;;;;6.35;5.75;;;22.70;70.80;;;;;;6182846;28;89140;-64
2024/01/03 04:47:35;;;;;;;6.43;5.82;;;22.60;70.80;;;;;;6194193;28;89102;-63
2024/01/03 04:50:37;;;;;;;6.60;5.80;;;22.70;70.80;;;;;;6199981;28;88004;-64
2024/01/03 04:53:40;;;;;;;6.10;5.50;;;22.60;70.70;;;;;;6188648;28;89158;-64
2024/01/03 04:56:42;;;;;;;6.60;5.90;;;22.60;70.60;;;;;;6189220;28;88337;-64
2024/01/03 04:59:44;;;;;;;5.78;5.20;;;22.70;70.60;;;;;;6187980;28;89215;-63
2024/01/03 05:02:46;;;;;;;5.75;5.15;;;22.60;70.50;;;;;;6191356;28;89097;-64
2024/01/03 05:05:48;;;;;;;7.40;5.53;;;22.60;70.40;;;;;;6200911;28;89949;-64
2024/01/03 05:08:51;;;;;;;6.35;5.28;;;22.70;70.60;;;;;;6193158;28;89018;-64
2024/01/03 05:11:53;;;;;;;6.15;5.18;;;22.70;70.60;;;;;;6195724;28;87912;-64
2024/01/03 05:14:55;;;;;;;5.82;5.20;;;22.70;70.60;;;;;;6192815;28;89217;-64
2024/01/03 05:17:57;;;;;;;5.82;5.13;;;22.60;70.60;;;;;;6179654;28;88297;-64
2024/01/03 05:20:59;;;;;;;7.40;5.22;;;22.70;70.80;;;;;;6195986;28;89000;-64
2024/01/03 05:24:03;;;;;;;6.68;5.28;;;22.70;70.90;;;;;;6190093;28;89085;-63
2024/01/03 05:27:05;;;;;;;5.97;5.38;;;22.60;70.90;;;;;;6185851;28;88283;-64
2024/01/03 05:30:08;;;;;;;6.50;5.05;;;22.60;71.00;;;;;;6210520;28;89292;-64
2024/01/03 05:33:10;;;;;;;5.15;4.65;;;22.60;71.10;;;;;;6197681;28;89385;-64
2024/01/03 05:36:12;;;;;;;5.70;5.10;;;22.60;71.00;;;;;;6191337;28;90012;-64
2024/01/03 05:39:15;;;;;;;5.25;4.72;;;22.60;71.00;;;;;;6193360;28;89194;-64
2024/01/03 05:42:17;;;;;;;5.85;4.90;;;22.60;71.00;;;;;;6180722;28;87950;-64
2024/01/03 05:45:19;;;;;;;6.53;4.97;;;22.60;71.00;;;;;;6204631;28;89054;-64
2024/01/03 05:48:21;;;;;;;5.82;5.05;;;22.60;71.30;;;;;;6202468;28;89133;-64
2024/01/03 05:51:23;;;;;;;7.35;5.57;;;22.60;71.00;;;;;;6209139;28;88530;-64
2024/01/03 05:54:27;;;;;;;6.07;4.93;;;22.60;71.10;;;;;;6202191;28;89135;-64
2024/01/03 05:57:29;;;;;;;5.28;4.78;;;22.60;71.20;;;;;;6200487;28;88869;-64
2024/01/03 06:00:31;;;;;;;5.10;4.57;;;22.60;71.40;;;;;;6195869;28;89775;-64
2024/01/03 06:03:33;;;;;;;5.22;4.72;;;22.60;71.50;;;;;;6194268;28;89052;-64
2024/01/03 06:06:35;;;;;;;5.20;4.63;;;22.60;71.60;;;;;;6192500;28;89955;-64
2024/01/03 06:09:38;;;;;;;6.53;4.63;;;22.60;71.70;;;;;;6189914;28;89200;-64
2024/01/03 06:12:40;;;;;;;5.22;4.60;;;22.60;71.80;;;;;;6197437;28;88282;-64
2024/01/03 06:15:42;;;;;;;5.50;4.95;;;22.70;72.00;;;;;;6203131;28;88975;-64
2024/01/03 06:18:44;;;;;;;5.22;4.55;;;22.60;71.80;;;;;;6194216;28;89280;-64
2024/01/03 06:21:46;;;;;;;4.95;4.45;;;22.60;71.80;;;;;;6205048;28;87942;-64
2024/01/03 06:24:50;;;;;;;5.20;4.38;;;22.60;71.80;;;;;;6192855;28;89246;-64
2024/01/03 06:27:53;;;;;;;6.07;4.55;;;22.70;71.80;;;;;;6197763;28;88354;-64
2024/01/03 06:30:55;;;;;;;5.10;4.45;;;22.60;71.70;;;;;;6199328;28;89086;-63
2024/01/03 06:33:57;;;;;;;4.93;4.43;;;22.60;71.70;;;;;;6192907;28;89150;-64
2024/01/03 06:37:00;;;;;;;4.72;4.30;;;22.60;71.80;;;;;;6205484;28;90068;-64
2024/01/03 06:40:03;;;;;;;5.28;4.78;;;22.60;71.80;;;;;;6189441;28;88990;-64
2024/01/03 06:43:06;;;;;;;5.38;4.65;;;22.70;71.90;;;;;;6198857;28;89064;-64
2024/01/03 06:46:08;;;;;;;5.05;4.40;;;22.60;71.90;;;;;;6202627;28;89438;-64
2024/01/03 06:49:10;;;;;;;5.25;4.43;;;22.60;72.00;;;;;;6193626;28;88335;-64
2024/01/03 06:52:12;;;;;;;5.25;4.15;;;22.60;72.00;;;;;;6192993;28;89448;-64
2024/01/03 06:55:15;;;;;;;5.07;4.00;;;22.70;72.00;;;;;;6196857;28;89041;-64
2024/01/03 06:58:20;;;;;;;4.40;4.00;;;22.60;72.00;;;;;;6195626;28;88280;-64
2024/01/03 07:01:22;;;;;;;4.05;3.65;;;22.70;72.20;;;;;;6196962;28;89082;-64
2024/01/03 07:04:25;;;;;;;4.88;4.10;;;22.70;72.20;;;;;;6197041;28;89069;-64
2024/01/03 07:07:27;;;;;;;4.57;4.13;;;22.60;72.20;;;;;;6194068;28;90341;-64
2024/01/03 07:10:32;;;;;;;4.50;4.10;;;22.70;72.20;;;;;;6184923;28;89375;-64
2024/01/03 07:13:34;;;;;;;4.82;4.30;;;22.70;73.10;;;;;;6194681;28;89151;-64
2024/01/03 07:16:36;;;;;;;5.88;4.20;;;22.70;72.20;;;;;;6204669;28;89153;-64
2024/01/03 07:19:38;;;;;;;5.45;3.90;;;22.70;72.20;;;;;;6198840;28;89049;-64
2024/01/03 07:22:39;;;;;;;4.22;3.83;;;22.70;72.20;;;;;;6187269;28;89387;-64
2024/01/03 07:25:43;;;;;;;4.22;3.83;;;22.70;72.30;;;;;;6194997;28;88974;-64
2024/01/03 07:28:45;;;;;;;5.95;4.10;;;22.70;72.30;;;;;;6205869;28;88310;-64
2024/01/03 07:31:47;;;;;;;3.95;3.55;;;22.70;72.30;;;;;;6203463;28;88606;-64
2024/01/03 07:34:49;;;;;;;4.50;3.97;;;22.70;72.30;;;;;;6189471;28;89085;-64
2024/01/03 07:37:51;;;;;;;4.70;4.18;;;22.70;72.70;;;;;;6191227;28;89973;-64
2024/01/03 07:40:54;;;;;;;6.50;4.47;;;22.70;72.30;;;;;;6181812;28;89072;-64
2024/01/03 07:43:56;;;;;;;5.18;4.18;;;22.70;72.30;;;;;;6182260;28;89269;-64
2024/01/03 07:46:58;;;;;;;4.15;3.75;;;22.70;72.30;;;;;;6206489;28;89153;-64
2024/01/03 07:50:00;;;;;;;7.05;4.45;;;22.70;72.30;;;;;;6182709;28;89143;-64
2024/01/03 07:53:02;;;;;;;4.18;3.78;;;22.70;72.30;;;;;;6207924;28;87966;-64
2024/01/03 07:56:08;;;;;;;4.13;3.72;;;22.70;72.40;;;;;;6195144;28;89035;-64
2024/01/03 07:59:10;;;;;;;4.68;3.70;;;22.70;72.40;;;;;;6196139;28;88661;-64
2024/01/03 08:02:12;;;;;;;4.03;3.63;;;22.70;72.40;;;;;;6184718;28;89113;-64
2024/01/03 08:05:14;;;;;;;4.07;3.67;;;22.70;72.40;;;;;;6187749;28;88906;-64
2024/01/03 08:08:16;;;;;;;4.03;3.63;;;22.70;72.40;;;;;;6193796;28;89992;-64
2024/01/03 08:11:19;;;;;;;3.72;3.40;;;22.70;72.50;;;;;;6200107;28;88016;-64
2024/01/03 08:14:21;;;;;;;4.05;3.28;;;22.70;72.50;;;;;;6191496;28;88433;-64
2024/01/03 08:17:23;;;;;;;5.35;3.70;;;22.70;72.50;;;;;;6190907;28;89536;-64
2024/01/03 08:20:25;;;;;;;3.55;3.22;;;22.70;72.50;;;;;;6188447;28;89102;-64
2024/01/03 08:23:27;;;;;;;3.75;3.08;;;22.80;72.50;;;;;;6190331;28;89123;-64
2024/01/03 08:26:31;;;;;;;3.53;3.22;;;22.70;72.50;;;;;;6200901;28;89050;-64
2024/01/03 08:29:34;;;;;;;4.78;3.50;;;22.70;72.40;;;;;;6191329;28;87231;-64
2024/01/03 08:32:37;;;;;;;4.70;3.47;;;22.80;72.50;;;;;;6194919;28;89077;-64
2024/01/03 08:35:39;;;;;;;3.70;3.20;;;22.80;72.50;;;;;;6194335;28;89132;-64
2024/01/03 08:38:41;;;;;;;3.72;3.35;;;22.80;72.50;;;;;;6192931;28;90447;-64
2024/01/03 08:41:47;;;;;;;3.75;3.35;;;22.80;72.50;;;;;;6189468;28;88896;-64
2024/01/03 08:44:51;;;;;;;3.33;3.03;;;22.80;72.50;;;;;;6197964;28;89170;-64
2024/01/03 08:47:53;;;;;;;3.50;3.20;;;22.70;72.50;;;;;;6190551;28;89186;-64
2024/01/03 08:50:55;;;;;;;3.33;3.00;;;22.80;72.50;;;;;;6192488;28;89346;-64
2024/01/03 08:53:57;;;;;;;3.33;3.03;;;22.80;73.40;;;;;;6192580;28;89447;-64
2024/01/03 08:57:01;;;;;;;3.40;3.10;;;22.80;72.50;;;;;;6192573;28;90065;-64
2024/01/03 09:00:03;;;;;;;3.45;2.90;;;22.80;72.50;;;;;;6202368;28;87273;-64
2024/01/03 09:03:05;;;;;;;3.40;3.10;;;22.80;72.50;;;;;;6203018;28;88067;-64
2024/01/03 09:06:07;;;;;;;3.17;2.88;;;22.80;72.50;;;;;;6190205;28;89071;-64
2024/01/03 09:09:09;;;;;;;3.72;3.10;;;22.80;72.60;;;;;;6192057;28;90407;-64
2024/01/03 09:12:13;;;;;;;3.35;2.83;;;22.80;72.60;;;;;;6184111;28;89073;-64
2024/01/03 09:15:15;;;;;;;3.20;2.90;;;22.80;72.70;;;;;;6203299;28;90546;-64
2024/01/03 09:18:17;;;;;;;3.22;2.92;;;22.80;72.60;;;;;;6201708;28;89058;-64
2024/01/03 09:21:19;;;;;;;3.00;2.70;;;22.80;72.60;;;;;;6201847;28;89082;-64
2024/01/03 09:24:21;;;;;;;3.03;2.72;;;22.80;72.50;;;;;;6199746;28;89026;-64
2024/01/03 09:27:24;;;;;;;4.32;3.22;;;22.80;72.60;;;;;;6193811;28;89133;-64
2024/01/03 09:30:26;;;;;;;3.25;2.90;;;22.80;72.60;;;;;;6205803;28;88682;-64
2024/01/03 09:33:28;;;;;;;3.88;2.67;;;22.90;72.70;;;;;;6198392;28;89062;-63
2024/01/03 09:36:30;;;;;;;3.05;2.75;;;22.80;72.60;;;;;;6196011;28;89335;-64
2024/01/03 09:39:31;;;;;;;2.80;2.53;;;22.90;72.60;;;;;;6201561;28;89947;-64
2024/01/03 09:42:36;;;;;;;3.88;2.67;;;22.90;72.60;;;;;;6197167;28;88105;-64
2024/01/03 09:45:38;;;;;;;4.50;2.95;;;22.90;72.60;;;;;;6196129;28;89068;-63
2024/01/03 09:48:41;;;;;;;2.58;2.38;;;22.90;72.60;;;;;;6204349;28;89017;-64
2024/01/03 09:51:45;;;;;;;2.67;2.47;;;22.90;72.50;;;;;;6197787;28;89062;-64
2024/01/03 09:54:48;;;;;;;3.13;2.80;;;23.00;72.50;;;;;;6193816;28;89199;-64
2024/01/03 09:57:52;;;;;;;2.70;2.50;;;23.00;72.50;;;;;;6198315;28;89268;-64
2024/01/03 10:00:54;;;;;;;3.38;2.70;;;23.00;72.50;;;;;;6199623;28;88523;-64
2024/01/03 10:03:55;;;;;;;4.63;3.00;;;23.00;72.50;;;;;;6196132;28;89186;-64
2024/01/03 10:06:58;;;;;;;2.83;2.53;;;22.90;72.40;;;;;;6198648;28;89054;-64
2024/01/03 10:10:00;;;;;;;2.70;2.42;;;23.00;72.40;;;;;;6202576;28;89951;-64
2024/01/03 10:13:19;;;;;;;2.80;2.53;;;23.00;72.40;;;;;;6202362;28;88953;-64
2024/01/03 10:16:25;;;;;;;2.33;2.13;;;22.90;72.40;;;;;;6198156;28;88964;-64
2024/01/03 10:19:30;;;;;;;2.47;2.28;;;22.90;72.50;;;;;;6196967;28;89023;-64
2024/01/03 10:22:32;;;;;;;3.08;2.53;;;22.90;72.50;;;;;;6201495;28;89125;-64
2024/01/03 10:25:34;;;;;;;2.38;2.13;;;23.00;72.60;;;;;;6202902;28;89100;-64
2024/01/03 10:28:38;;;;;;;2.83;2.40;;;23.00;72.50;;;;;;6190721;28;89321;-65
2024/01/03 10:31:41;;;;;;;2.38;2.17;;;23.00;73.50;;;;;;6202830;28;88299;-64
2024/01/03 10:34:43;;;;;;;2.50;2.30;;;23.00;72.50;;;;;;6187522;28;89016;-64
2024/01/03 10:37:45;;;;;;;2.70;2.28;;;23.00;72.50;;;;;;6197325;28;89121;-64
2024/01/03 10:40:48;;;;;;;3.70;2.58;;;23.00;72.50;;;;;;6194676;28;90039;-64
2024/01/03 10:43:53;;;;;;;2.63;2.20;;;23.00;72.50;;;;;;6194901;28;87627;-63
2024/01/03 10:46:55;;;;;;;2.25;1.92;;;23.00;72.40;;;;;;6187972;28;88933;-64
2024/01/03 10:49:57;;;;;;;2.38;2.17;;;23.00;72.40;;;;;;6193040;28;88991;-64
2024/01/03 10:53:00;;;;;;;2.50;2.30;;;23.00;72.40;;;;;;6187855;28;87988;-64
2024/01/03 10:56:04;;;;;;;2.20;2.00;;;23.00;72.40;;;;;;6199199;28;88105;-64
2024/01/03 10:59:08;;;;;;;2.53;2.33;;;23.00;72.40;;;;;;6198267;28;89191;-64
2024/01/03 11:02:21;;;;;;;2.60;2.20;;;23.00;72.40;;;;;;6196021;28;89768;-64
2024/01/03 11:05:33;;;;;;;2.40;2.20;;;23.00;72.50;;;;;;6185065;28;87968;-64
2024/01/03 11:08:43;;;;;;;1.83;1.73;;;23.00;72.50;;;;;;6185464;28;89060;-64
2024/01/03 11:11:45;;;;;;;2.10;1.90;;;23.00;72.40;;;;;;6192625;28;88834;-64
2024/01/03 11:14:48;;;;;;;2.45;1.83;;;23.00;72.30;;;;;;6188623;28;89043;-64
2024/01/03 11:17:50;;;;;;;2.28;2.08;;;23.00;72.40;;;;;;6187377;28;89307;-64
2024/01/03 11:20:52;;;;;;;2.67;2.10;;;23.00;72.50;;;;;;6195775;28;88860;-64
2024/01/03 11:23:54;;;;;;;4.38;2.78;;;23.00;72.50;;;;;;6195529;28;89103;-64
2024/01/03 11:27:04;;;;;;;2.63;2.17;;;23.00;72.50;;;;;;6182290;28;88985;-64
2024/01/03 11:30:42;;;;;;;2.10;1.90;;;23.00;72.40;;;;;;6194933;28;88997;-64
2024/01/03 11:33:44;;;;;;;3.83;2.60;;;23.00;72.40;;;;;;6203819;28;88271;-63
2024/01/03 11:36:47;;;;;;;2.55;2.10;;;23.00;72.30;;;;;;6204716;28;89038;-63
2024/01/03 11:39:50;;;;;;;2.20;1.95;;;23.10;72.40;;;;;;6182435;28;89168;-64
2024/01/03 11:42:58;;;;;;;2.22;1.90;;;23.00;72.30;;;;;;6179520;28;90119;-64
2024/01/03 11:46:09;;;;;;;2.35;2.00;;;23.00;72.30;;;;;;6193419;28;87413;-64
2024/01/03 11:49:11;;;;;;;2.42;2.00;;;23.00;72.30;;;;;;6200398;28;89161;-64
2024/01/03 11:52:13;;;;;;;2.53;2.03;;;23.00;72.30;;;;;;6191315;28;89043;-63
2024/01/03 11:55:17;;;;;;;2.40;2.08;;;23.00;72.30;;;;;;6193980;28;89066;-64
2024/01/03 11:58:19;;;;;;;1.73;1.63;;;23.10;72.40;;;;;;6202511;28;89370;-64
2024/01/03 12:01:22;;;;;;;2.30;2.10;;;23.00;72.30;;;;;;6189785;28;89045;-64
2024/01/03 12:04:24;;;;;;;2.00;1.80;;;23.00;72.30;;;;;;6197368;28;88278;-64
2024/01/03 12:07:27;;;;;;;3.88;2.45;;;23.00;72.30;;;;;;6195002;28;89079;-64
2024/01/03 12:10:30;;;;;;;2.13;1.92;;;23.00;72.30;;;;;;6182996;28;88982;-64
2024/01/03 12:13:32;;;;;;;2.08;1.85;;;23.10;72.30;;;;;;6193410;28;91474;-64
2024/01/03 12:16:46;;;;;;;2.05;1.80;;;23.10;72.30;;;;;;6195512;28;88240;-64
2024/01/03 12:19:48;;;;;;;2.13;1.90;;;23.00;72.30;;;;;;6195282;28;89162;-64
2024/01/03 12:22:50;;;;;;;2.13;1.88;;;23.00;72.30;;;;;;6181606;28;89097;-64
2024/01/03 12:25:52;;;;;;;2.38;1.90;;;23.00;72.30;;;;;;6194471;28;89009;-64
2024/01/03 12:29:01;;;;;;;2.03;1.80;;;23.00;72.30;;;;;;6190208;28;89097;-62
2024/01/03 12:32:11;;;;;;;2.00;1.77;;;23.00;72.30;;;;;;6189863;28;89009;-64
2024/01/03 12:35:13;;;;;;;1.92;1.80;;;23.00;72.30;;;;;;6193077;28;88226;-64
2024/01/03 12:38:15;;;;;;;2.05;1.67;;;23.00;72.30;;;;;;6195360;28;89093;-64
2024/01/03 12:41:17;;;;;;;2.08;1.67;;;23.00;72.30;;;;;;6188239;28;89152;-64
2024/01/03 12:44:19;;;;;;;2.00;1.80;;;23.00;72.30;;;;;;6183180;28;89370;-64
2024/01/03 12:47:22;;;;;;;3.08;2.10;;;23.10;72.30;;;;;;6194206;28;89067;-64
2024/01/03 12:50:24;;;;;;;2.67;2.00;;;23.00;72.30;;;;;;6191678;28;88987;-63
2024/01/03 12:53:26;;;;;;;2.13;1.90;;;23.00;72.30;;;;;;6202756;28;89870;-63
2024/01/03 12:56:29;;;;;;;2.15;1.83;;;23.00;72.30;;;;;;6185728;28;89101;-64
2024/01/03 12:59:31;;;;;;;1.98;1.70;;;23.10;72.30;;;;;;6201868;28;89058;-64
2024/01/03 13:02:34;;;;;;;1.80;1.70;;;23.10;72.30;;;;;;6192341;28;89305;-64
2024/01/03 13:05:36;;;;;;;1.67;1.58;;;23.00;72.20;;;;;;6195811;28;88614;-64
2024/01/03 13:08:38;;;;;;;3.13;2.25;;;23.10;72.30;;;;;;6194095;28;89383;-64
2024/01/03 13:11:40;;;;;;;2.13;1.88;;;23.00;72.30;;;;;;6203311;28;89036;-63
2024/01/03 13:14:42;;;;;;;1.63;1.50;;;23.00;72.30;;;;;;6191577;28;90922;-64
2024/01/03 13:17:45;;;;;;;2.00;1.50;;;23.00;72.30;;;;;;6187114;28;89145;-64
2024/01/03 13:20:47;;;;;;;1.85;1.65;;;23.10;72.30;;;;;;6189839;28;89084;-64
2024/01/03 13:23:49;;;;;;;2.00;1.80;;;23.10;72.30;;;;;;6202416;28;89051;-64
2024/01/03 13:26:51;;;;;;;1.98;1.63;;;23.10;72.30;;;;;;6203309;28;89061;-64
2024/01/03 13:29:53;;;;;;;2.30;1.85;;;23.00;72.30;;;;;;6202790;28;88933;-64
2024/01/03 13:32:57;;;;;;;2.03;1.63;;;23.00;72.30;;;;;;6196808;28;89182;-63
2024/01/03 13:35:58;;;;;;;2.28;1.80;;;23.10;72.30;;;;;;6184247;28;88396;-64
2024/01/03 13:39:00;;;;;;;2.38;1.70;;;23.10;72.20;;;;;;6199091;28;88923;-63
2024/01/03 13:42:03;;;;;;;1.67;1.58;;;23.00;72.20;;;;;;6196811;28;89065;-64
2024/01/03 13:45:06;;;;;;;1.83;1.65;;;23.10;72.20;;;;;;6194133;28;90315;-64
2024/01/03 13:48:10;;;;;;;2.00;1.70;;;23.00;72.20;;;;;;6199533;28;89137;-64
2024/01/03 13:51:12;;;;;;;1.65;1.50;;;23.10;72.20;;;;;;6201220;28;87945;-63
2024/01/03 13:54:14;;;;;;;2.63;1.90;;;23.00;72.20;;;;;;6199169;28;89096;-64
2024/01/03 13:57:16;;;;;;;2.30;1.83;;;23.10;72.20;;;;;;6183897;28;88652;-64
2024/01/03 14:00:19;;;;;;;2.63;1.70;;;23.00;72.20;;;;;;6195869;28;89402;-63
2024/01/03 14:03:23;;;;;;;1.73;1.60;;;23.00;72.20;;;;;;6200663;28;89196;-64
2024/01/03 14:06:25;;;;;;;1.67;1.58;;;23.10;72.20;;;;;;6191213;28;88510;-64
2024/01/03 14:09:27;;;;;;;1.80;1.45;;;23.10;72.20;;;;;;6190220;28;89070;-64
2024/01/03 14:12:29;;;;;;;3.08;2.25;;;23.10;72.20;;;;;;6184661;28;89030;-64
2024/01/03 14:15:31;;;;;;;2.47;1.75;;;23.10;72.20;;;;;;6205550;28;90086;-64
2024/01/03 14:18:34;;;;;;;2.13;1.63;;;23.10;72.20;;;;;;6197669;28;89030;-64
2024/01/03 14:21:41;;;;;;;2.50;1.90;;;23.10;72.20;;;;;;6194077;28;89056;-64
2024/01/03 14:24:43;;;;;;;2.00;1.77;;;23.10;72.20;;;;;;6193854;28;89427;-64
2024/01/03 14:27:45;;;;;;;1.52;1.42;;;23.10;72.20;;;;;;6204266;28;87630;-64
2024/01/03 14:30:47;;;;;;;2.30;1.58;;;23.10;72.20;;;;;;6203310;28;89094;-64
2024/01/03 14:33:51;;;;;;;1.88;1.50;;;23.10;72.20;;;;;;6198088;28;89058;-64
2024/01/03 14:37:07;;;;;;;1.90;1.70;;;23.10;72.20;;;;;;6196588;28;87568;-64
2024/01/03 14:40:15;;;;;;;1.83;1.55;;;23.10;72.20;;;;;;6188764;28;88957;-64
2024/01/03 14:46:46;;;;;;;1.65;1.50;;;23.10;72.10;;;;;;6256170;28;80243;-64
2024/01/03 14:49:48;;;;;;;1.63;1.50;;;23.10;72.00;;;;;;6224147;27;82092;-65
2024/01/03 14:52:50;;;;;;;1.60;1.40;;;23.10;72.00;;;;;;6231000;27;83094;-64
2024/01/03 14:55:53;;;;;;;2.03;1.55;;;23.10;72.00;;;;;;6217966;28;82248;-65
2024/01/03 14:58:56;;;;;;;1.83;1.42;;;23.10;72.00;;;;;;6224448;28;81648;-65
2024/01/03 15:01:59;;;;;;;2.35;1.67;;;23.00;72.10;;;;;;6225020;28;82290;-65
2024/01/03 15:05:01;;;;;;;1.80;1.50;;;23.10;72.30;;;;;;6215370;28;82288;-65
2024/01/03 15:08:04;;;;;;;2.35;1.77;;;23.10;72.30;;;;;;6227472;28;82286;-65
2024/01/03 15:11:06;;;;;;;3.17;1.65;;;23.00;72.30;;;;;;6229830;28;82241;-65
2024/01/03 15:14:08;;;;;;;2.35;1.65;;;23.10;72.30;;;;;;6232381;28;81393;-65
2024/01/03 15:17:11;;;;;;;2.83;1.73;;;23.00;72.30;;;;;;6227149;27;81205;-65
2024/01/03 15:20:13;;;;;;;2.72;1.63;;;23.10;72.50;;;;;;6229566;28;81191;-64
2024/01/03 15:23:16;;;;;;;3.65;1.60;;;23.00;72.70;;;;;;6235966;28;81191;-65
2024/01/03 15:26:18;;;;;;;3.53;1.60;;;23.10;73.00;;;;;;6225479;28;82127;-65
2024/01/03 15:29:20;;;;;;;4.50;1.67;;;23.00;73.00;;;;;;6225589;28;82240;-65
2024/01/03 15:32:24;;;;;;;4.97;1.80;;;23.10;73.30;;;;;;6213038;28;82341;-65
2024/01/03 15:35:26;;;;;;;3.28;1.65;;;23.10;73.30;;;;;;6226229;27;82393;-65
2024/01/03 15:38:28;;;;;;;2.75;1.60;;;23.00;73.40;;;;;;6229731;28;82602;-65
2024/01/03 15:41:30;;;;;;;3.05;1.80;;;23.00;73.50;;;;;;6214341;28;82295;-65
2024/01/03 15:44:32;;;;;;;3.20;1.70;;;23.10;73.60;;;;;;6219996;28;82399;-65
2024/01/03 15:47:35;;;;;;;4.10;1.80;;;23.10;73.70;;;;;;6215006;28;82404;-65
2024/01/03 15:50:37;;;;;;;4.03;1.77;;;23.10;73.70;;;;;;6217989;28;82293;-65